Time;durP1;ratioP1;P1;durP2;ratioP2;P2;SDS_P1;SDS_P2;PMS_P1;PMS_P2;Temp;Humidity;BMP_temperature;BMP_pressure;BME280_temperature;BME280_humidity;BME280_pressure;Samples;Min_cycle;Max_cycle;Signal;HPM_P1;HPM_P2
2023/07/01 00:01:28;;;;;;;5.45;2.22;;;12.60;99.90;;;;;;5073108;28;19979;-60
2023/07/01 00:03:54;;;;;;;4.15;2.28;;;12.60;99.90;;;;;;5073134;28;20044;-60
2023/07/01 00:06:19;;;;;;;;;;;12.70;99.90;;;;;;5073787;28;20060;-57
2023/07/01 00:08:45;;;;;;;5.72;2.20;;;12.60;99.90;;;;;;5072330;28;20061;-60
2023/07/01 00:11:10;;;;;;;;;;;12.70;99.90;;;;;;5073248;28;20124;-59
2023/07/01 00:13:36;;;;;;;5.93;2.45;;;12.70;99.90;;;;;;5074114;28;19931;-61
2023/07/01 00:16:02;;;;;;;7.07;2.75;;;12.70;99.90;;;;;;5071168;28;20567;-61
2023/07/01 00:18:27;;;;;;;;;;;12.60;99.90;;;;;;5061104;28;20049;-56
2023/07/01 00:20:54;;;;;;;5.63;2.47;;;12.70;99.90;;;;;;5056976;28;19919;-59
2023/07/01 00:23:19;;;;;;;14.80;2.53;;;12.70;99.90;;;;;;5060010;28;20040;-60
2023/07/01 00:25:46;;;;;;;;;;;12.60;99.90;;;;;;5057807;28;20450;-55
2023/07/01 00:28:12;;;;;;;2.70;2.13;;;12.60;99.90;;;;;;5062527;28;21402;-60
2023/07/01 00:30:38;;;;;;;;;;;12.60;99.90;;;;;;5055133;28;20646;-61
2023/07/01 00:33:05;;;;;;;8.73;2.22;;;12.70;99.90;;;;;;5057795;28;19959;-54
2023/07/01 00:35:31;;;;;;;5.25;2.22;;;12.70;99.90;;;;;;5060701;28;20054;-58
2023/07/01 00:37:57;;;;;;;3.22;2.28;;;12.70;99.90;;;;;;5061787;28;20053;-61
2023/07/01 00:40:23;;;;;;;;;;;12.70;99.90;;;;;;5054812;28;20037;-60
2023/07/01 00:42:48;;;;;;;6.63;2.20;;;12.80;99.90;;;;;;5063312;28;19966;-64
2023/07/01 00:45:14;;;;;;;;;;;12.70;99.90;;;;;;5054944;28;20072;-59
2023/07/01 00:47:40;;;;;;;3.50;2.42;;;12.80;99.90;;;;;;5060892;28;19928;-58
2023/07/01 00:50:14;;;;;;;5.55;3.00;;;12.80;99.90;;;;;;5054726;28;20086;-60
2023/07/01 00:52:40;;;;;;;7.78;2.78;;;12.80;99.90;;;;;;5061461;28;20071;-58
2023/07/01 00:55:10;;;;;;;6.97;2.35;;;12.80;99.90;;;;;;5053967;28;20027;-61
2023/07/01 00:57:36;;;;;;;8.25;2.60;;;12.80;99.90;;;;;;5062179;28;20032;-61
2023/07/01 01:00:04;;;;;;;;;;;12.80;99.90;;;;;;5062120;28;20094;-61
2023/07/01 01:02:37;;;;;;;4.53;2.33;;;12.80;99.90;;;;;;5055456;28;19943;-56
2023/07/01 01:05:12;;;;;;;4.72;2.40;;;12.90;99.90;;;;;;5058620;28;20045;-59
2023/07/01 01:07:58;;;;;;;7.43;2.58;;;12.90;99.90;;;;;;5062536;28;20060;-59
2023/07/01 01:10:25;;;;;;;4.65;2.58;;;12.90;99.90;;;;;;5059467;28;20093;-60
2023/07/01 01:12:58;;;;;;;9.77;2.40;;;13.00;99.90;;;;;;5059968;28;20129;-60
2023/07/01 01:15:27;;;;;;;10.63;2.90;;;13.00;99.90;;;;;;5056790;28;20075;-59
2023/07/01 01:17:57;;;;;;;6.88;2.83;;;13.00;99.90;;;;;;5059652;28;20750;-59
2023/07/01 01:20:23;;;;;;;5.30;2.30;;;13.00;99.90;;;;;;5055675;28;20037;-56
2023/07/01 01:23:02;;;;;;;4.30;2.28;;;13.10;99.90;;;;;;5062601;28;20094;-60
2023/07/01 01:25:39;;;;;;;7.78;2.88;;;13.10;99.90;;;;;;5061894;28;20068;-61
2023/07/01 01:28:06;;;;;;;3.17;2.17;;;13.10;99.90;;;;;;5060629;28;20564;-60
2023/07/01 01:30:32;;;;;;;5.90;2.40;;;13.10;99.90;;;;;;5052956;28;20090;-53
2023/07/01 01:32:58;;;;;;;5.47;2.63;;;13.10;99.90;;;;;;5055157;28;20147;-55
2023/07/01 01:35:24;;;;;;;7.38;2.67;;;13.20;99.90;;;;;;5052492;28;20428;-57
2023/07/01 01:37:56;;;;;;;;;;;13.20;99.90;;;;;;5061254;28;20094;-56
2023/07/01 01:40:46;;;;;;;6.32;2.25;;;13.20;99.90;;;;;;5051849;28;19920;-59
2023/07/01 01:43:23;;;;;;;5.60;2.15;;;13.20;99.90;;;;;;5056761;28;20040;-61
2023/07/01 01:45:49;;;;;;;4.85;2.25;;;13.20;99.90;;;;;;5055487;28;20048;-59
2023/07/01 01:48:15;;;;;;;4.10;2.17;;;13.20;99.90;;;;;;5059509;28;20072;-56
2023/07/01 01:50:41;;;;;;;;;;;13.30;99.90;;;;;;5055217;28;20156;-60
2023/07/01 01:53:10;;;;;;;4.47;2.00;;;13.30;99.90;;;;;;5056139;28;20700;-57
2023/07/01 01:55:37;;;;;;;4.30;2.08;;;13.30;99.90;;;;;;5049787;28;20040;-61
2023/07/01 01:58:03;;;;;;;4.75;2.30;;;13.30;99.90;;;;;;5060885;28;20126;-58
2023/07/01 02:00:31;;;;;;;;;;;13.30;99.90;;;;;;5051957;28;20083;-58
2023/07/01 02:02:57;;;;;;;4.80;2.33;;;13.40;99.90;;;;;;5056689;28;19916;-58
2023/07/01 02:05:22;;;;;;;;;;;13.40;99.90;;;;;;5049521;28;20128;-59
2023/07/01 02:07:48;;;;;;;2.88;1.98;;;13.40;99.90;;;;;;5059686;28;19920;-60
2023/07/01 02:10:13;;;;;;;;;;;13.40;99.90;;;;;;5051590;28;20072;-61
2023/07/01 02:12:39;;;;;;;5.43;2.20;;;13.40;99.90;;;;;;5061993;28;19951;-56
2023/07/01 02:15:05;;;;;;;;;;;13.40;99.90;;;;;;5051825;28;20044;-59
2023/07/01 02:17:30;;;;;;;7.38;2.13;;;13.40;99.90;;;;;;5061529;28;19927;-60
2023/07/01 02:19:56;;;;;;;;;;;13.40;99.90;;;;;;5057306;28;20035;-58
2023/07/01 02:22:21;;;;;;;5.60;2.33;;;13.40;99.90;;;;;;5060003;28;20372;-58
2023/07/01 02:24:47;;;;;;;;;;;13.30;99.90;;;;;;5057173;28;20033;-60
2023/07/01 02:27:12;;;;;;;5.00;2.03;;;13.30;99.90;;;;;;5059150;28;20015;-58
2023/07/01 02:29:38;;;;;;;;;;;13.40;99.90;;;;;;5054428;28;20036;-61
2023/07/01 02:32:05;;;;;;;4.57;2.35;;;13.40;99.90;;;;;;5055550;28;20321;-60
2023/07/01 02:34:30;;;;;;;5.47;2.97;;;13.40;99.90;;;;;;5053051;28;20080;-58
2023/07/01 02:36:56;;;;;;;;;;;13.50;99.90;;;;;;5062637;28;20079;-57
2023/07/01 02:39:21;;;;;;;3.65;2.10;;;13.50;99.90;;;;;;5052833;28;19928;-64
2023/07/01 02:41:47;;;;;;;;;;;13.50;99.90;;;;;;5060484;28;20094;-57
2023/07/01 02:44:13;;;;;;;10.60;2.33;;;13.50;99.90;;;;;;5053051;28;19976;-60
2023/07/01 02:46:38;;;;;;;;;;;13.60;99.90;;;;;;5059273;28;20041;-55
2023/07/01 02:49:04;;;;;;;7.53;1.88;;;13.60;99.90;;;;;;5051897;28;20361;-57
2023/07/01 02:51:30;;;;;;;;;;;13.60;99.90;;;;;;5075007;28;20044;-54
2023/07/01 02:53:55;;;;;;;5.75;2.50;;;13.60;99.90;;;;;;5053435;28;19928;-56
2023/07/01 02:56:21;;;;;;;3.38;1.98;;;13.70;99.90;;;;;;5058069;28;20044;-60
2023/07/01 02:58:46;;;;;;;;;;;13.70;99.90;;;;;;5056644;28;20043;-60
2023/07/01 03:01:13;;;;;;;9.25;2.20;;;13.70;99.90;;;;;;5052570;28;20000;-59
2023/07/01 03:03:40;;;;;;;5.03;2.00;;;13.70;99.90;;;;;;5057279;28;20518;-59
2023/07/01 03:06:05;;;;;;;4.05;2.25;;;13.60;99.90;;;;;;5054854;28;20500;-59
2023/07/01 03:08:31;;;;;;;;;;;13.60;99.90;;;;;;5058688;28;20069;-61
2023/07/01 03:10:56;;;;;;;2.90;1.85;;;13.60;99.90;;;;;;5054560;28;19938;-59
2023/07/01 03:13:22;;;;;;;;;;;13.60;99.90;;;;;;5052070;28;20493;-59
2023/07/01 03:15:56;;;;;;;6.78;1.90;;;13.60;99.90;;;;;;5049855;28;19920;-58
2023/07/01 03:18:23;;;;;;;4.78;1.83;;;13.60;99.90;;;;;;5058009;28;20683;-61
2023/07/01 03:20:53;;;;;;;11.55;1.75;;;13.70;99.90;;;;;;5051119;28;20119;-60
2023/07/01 03:23:18;;;;;;;6.93;1.80;;;13.70;99.90;;;;;;5037376;28;20051;-59
2023/07/01 03:25:44;;;;;;;;;;;13.70;99.90;;;;;;5034716;28;20037;-57
2023/07/01 03:28:09;;;;;;;6.32;2.17;;;13.80;99.90;;;;;;5039786;28;20233;-57
2023/07/01 03:30:35;;;;;;;;;;;13.80;99.90;;;;;;5031483;28;20037;-59
2023/07/01 03:33:01;;;;;;;9.57;2.22;;;13.90;99.90;;;;;;5045518;28;19920;-58
2023/07/01 03:35:26;;;;;;;;;;;13.90;99.90;;;;;;5043228;28;20036;-58
2023/07/01 03:37:52;;;;;;;11.77;2.22;;;13.80;99.90;;;;;;5051081;28;19920;-59
2023/07/01 03:40:17;;;;;;;;;;;13.90;99.90;;;;;;5041244;28;20048;-60
2023/07/01 03:42:43;;;;;;;7.20;1.80;;;14.00;99.90;;;;;;5051739;28;19916;-56
2023/07/01 03:45:10;;;;;;;;;;;14.10;99.90;;;;;;5038680;28;20112;-58
2023/07/01 03:47:37;;;;;;;7.23;2.00;;;14.10;99.90;;;;;;5052281;28;20484;-60
2023/07/01 03:50:03;;;;;;;4.03;1.83;;;14.10;99.90;;;;;;5039685;28;20282;-59
2023/07/01 03:52:29;;;;;;;7.25;1.67;;;14.20;99.90;;;;;;5054411;28;20072;-56
2023/07/01 03:54:56;;;;;;;9.02;2.22;;;14.20;99.90;;;;;;5042046;28;20119;-61
2023/07/01 03:57:22;;;;;;;3.40;2.08;;;14.30;99.90;;;;;;5056749;28;20044;-59
2023/07/01 03:59:47;;;;;;;;;;;14.40;99.90;;;;;;5045448;28;20718;-52
2023/07/01 04:02:13;;;;;;;4.35;1.75;;;14.40;99.90;;;;;;5048647;28;19924;-59
2023/07/01 04:04:38;;;;;;;;;;;14.50;99.90;;;;;;5046466;28;20040;-56
2023/07/01 04:07:05;;;;;;;4.07;1.88;;;14.50;99.90;;;;;;5051774;28;19939;-52
2023/07/01 04:09:31;;;;;;;4.22;1.90;;;14.50;99.90;;;;;;5045196;28;20421;-60
2023/07/01 04:11:57;;;;;;;3.38;1.85;;;14.50;99.90;;;;;;5053263;28;20605;-60
2023/07/01 04:14:23;;;;;;;;;;;14.60;99.90;;;;;;5055119;28;20033;-57
2023/07/01 04:16:50;;;;;;;3.37;2.07;;;14.60;99.90;;;;;;5058884;28;19924;-61
2023/07/01 04:19:15;;;;;;;3.47;1.70;;;14.70;99.90;;;;;;5047751;28;20125;-55
2023/07/01 04:21:41;;;;;;;;;;;14.70;99.90;;;;;;5055195;28;20044;-59
2023/07/01 04:24:07;;;;;;;4.72;2.00;;;14.80;99.90;;;;;;5048247;28;19928;-61
2023/07/01 04:26:36;;;;;;;2.83;1.88;;;14.80;99.90;;;;;;5051126;28;20048;-59
2023/07/01 04:29:02;;;;;;;4.35;1.80;;;14.80;99.90;;;;;;5050579;28;20080;-61
2023/07/01 04:31:28;;;;;;;5.22;1.85;;;14.80;99.90;;;;;;5048255;28;20449;-57
2023/07/01 04:33:54;;;;;;;;;;;14.80;99.90;;;;;;5068575;28;20611;-53
2023/07/01 04:36:19;;;;;;;3.75;1.92;;;14.90;99.90;;;;;;5052992;28;19912;-60
2023/07/01 04:38:45;;;;;;;;;;;14.80;99.90;;;;;;5052768;28;20029;-56
2023/07/01 04:41:11;;;;;;;7.50;2.65;;;14.80;99.90;;;;;;5057417;28;19950;-57
2023/07/01 04:43:36;;;;;;;;;;;14.80;99.90;;;;;;5057310;28;20531;-55
2023/07/01 04:46:03;;;;;;;3.33;1.60;;;14.80;99.90;;;;;;5050420;28;19932;-60
2023/07/01 04:48:29;;;;;;;3.35;1.65;;;14.80;99.90;;;;;;5059143;28;20073;-60
2023/07/01 04:50:54;;;;;;;;;;;14.90;99.90;;;;;;5048592;28;20090;-53
2023/07/01 04:53:20;;;;;;;6.07;2.05;;;14.90;99.90;;;;;;5054023;28;19920;-55
2023/07/01 04:55:46;;;;;;;;;;;14.80;99.90;;;;;;5053175;28;20047;-57
2023/07/01 04:58:11;;;;;;;3.95;1.85;;;14.90;99.90;;;;;;5054359;28;20426;-59
2023/07/01 05:00:37;;;;;;;;;;;14.90;99.90;;;;;;5052395;28;20097;-56
2023/07/01 05:03:04;;;;;;;7.78;1.90;;;14.90;99.90;;;;;;5054282;28;19920;-60
2023/07/01 05:05:29;;;;;;;3.67;1.73;;;14.90;99.90;;;;;;5047722;28;20144;-58
2023/07/01 05:07:55;;;;;;;;;;;14.90;99.90;;;;;;5054551;28;20559;-57
2023/07/01 05:10:20;;;;;;;5.65;1.40;;;14.90;99.90;;;;;;5049098;28;20069;-53
2023/07/01 05:12:46;;;;;;;7.72;2.38;;;14.90;99.90;;;;;;5057295;28;20782;-55
2023/07/01 05:15:12;;;;;;;;;;;14.90;99.90;;;;;;5054588;28;20353;-60
2023/07/01 05:17:37;;;;;;;4.57;1.67;;;14.90;99.90;;;;;;5058385;28;19927;-56
2023/07/01 05:20:04;;;;;;;3.33;1.40;;;14.90;99.90;;;;;;5057001;28;20458;-58
2023/07/01 05:22:30;;;;;;;2.78;1.92;;;14.90;99.90;;;;;;5066865;28;20048;-56
2023/07/01 05:24:56;;;;;;;;;;;14.90;99.90;;;;;;5049895;28;20545;-52
2023/07/01 05:27:21;;;;;;;8.07;1.90;;;14.90;99.90;;;;;;5057367;28;20588;-55
2023/07/01 05:29:47;;;;;;;7.15;1.45;;;14.90;99.90;;;;;;5058887;28;20144;-62
2023/07/01 05:32:12;;;;;;;5.10;1.73;;;14.90;99.90;;;;;;5049163;28;20122;-61
2023/07/01 05:34:38;;;;;;;;;;;14.90;99.90;;;;;;5055686;28;20040;-52
2023/07/01 05:37:04;;;;;;;3.05;1.38;;;15.00;99.90;;;;;;5057687;28;19920;-52
2023/07/01 05:39:30;;;;;;;;;;;15.00;99.90;;;;;;5056170;28;20044;-62
2023/07/01 05:41:56;;;;;;;4.15;1.77;;;15.00;99.90;;;;;;5055706;28;19924;-55
2023/07/01 05:44:24;;;;;;;;;;;15.00;99.90;;;;;;5052870;28;20048;-57
2023/07/01 05:46:50;;;;;;;8.20;2.20;;;15.00;99.90;;;;;;5056850;28;19932;-56
2023/07/01 05:49:15;;;;;;;;;;;15.00;99.90;;;;;;5055128;28;20042;-61
2023/07/01 05:51:41;;;;;;;3.72;1.63;;;15.00;99.90;;;;;;5052598;28;20145;-59
2023/07/01 05:54:06;;;;;;;3.20;1.30;;;15.00;99.90;;;;;;5053896;28;20071;-53
2023/07/01 05:56:32;;;;;;;;;;;15.00;99.90;;;;;;5056069;28;20063;-61
2023/07/01 05:58:58;;;;;;;6.28;2.10;;;15.00;99.90;;;;;;5053094;28;19917;-59
2023/07/01 06:01:23;;;;;;;;;;;15.00;99.90;;;;;;5053965;28;20714;-54
2023/07/01 06:03:49;;;;;;;4.78;1.77;;;15.10;99.90;;;;;;5054100;28;20367;-62
2023/07/01 06:06:14;;;;;;;;;;;15.10;99.90;;;;;;5052268;28;20131;-58
2023/07/01 06:08:42;;;;;;;6.18;2.05;;;15.10;99.90;;;;;;5057074;28;19959;-61
2023/07/01 06:11:08;;;;;;;3.80;1.73;;;15.20;99.90;;;;;;5053424;28;20503;-60
2023/07/01 06:13:34;;;;;;;;;;;15.30;99.90;;;;;;5052731;28;20540;-60
2023/07/01 06:15:59;;;;;;;6.70;1.77;;;15.30;99.90;;;;;;5056780;28;19924;-57
2023/07/01 06:18:25;;;;;;;;;;;15.30;99.90;;;;;;5058476;28;20048;-60
2023/07/01 06:20:50;;;;;;;15.32;2.13;;;15.40;99.90;;;;;;5053472;28;19939;-59
2023/07/01 06:23:17;;;;;;;;;;;15.40;99.90;;;;;;5056020;28;20040;-58
2023/07/01 06:25:42;;;;;;;2.95;1.70;;;15.40;99.90;;;;;;5057048;28;19924;-59
2023/07/01 06:28:08;;;;;;;;;;;15.50;99.90;;;;;;5058399;28;20044;-58
2023/07/01 06:30:33;;;;;;;5.00;2.00;;;15.50;99.90;;;;;;5043552;28;19935;-59
2023/07/01 06:32:59;;;;;;;;;;;15.60;99.90;;;;;;5054024;28;20094;-58
2023/07/01 06:35:24;;;;;;;5.80;1.98;;;15.60;99.90;;;;;;5059546;28;19962;-60
2023/07/01 06:37:50;;;;;;;4.45;1.92;;;15.60;99.90;;;;;;5058602;28;20448;-61
2023/07/01 06:40:15;;;;;;;;;;;15.60;99.90;;;;;;5045559;28;20796;-60
2023/07/01 06:42:43;;;;;;;8.48;2.03;;;15.60;99.90;;;;;;5059965;28;19921;-61
2023/07/01 06:45:09;;;;;;;3.85;2.10;;;15.60;99.90;;;;;;5050433;28;20064;-58
2023/07/01 06:47:34;;;;;;;;;;;15.60;99.90;;;;;;5053110;28;20067;-49
2023/07/01 06:50:00;;;;;;;7.32;2.50;;;15.60;99.90;;;;;;5058033;28;19962;-56
2023/07/01 06:52:25;;;;;;;;;;;15.60;99.90;;;;;;5056973;28;20407;-57
2023/07/01 06:54:51;;;;;;;6.07;2.15;;;15.60;99.90;;;;;;5051839;28;19920;-61
2023/07/01 06:57:16;;;;;;;;;;;15.60;99.90;;;;;;5046959;28;20045;-54
2023/07/01 06:59:42;;;;;;;3.08;1.80;;;15.60;99.90;;;;;;5050594;28;19920;-59
2023/07/01 07:02:08;;;;;;;4.47;2.30;;;15.60;99.90;;;;;;5061002;28;20174;-59
2023/07/01 07:04:33;;;;;;;;;;;15.60;99.90;;;;;;5055764;28;20522;-54
2023/07/01 07:06:59;;;;;;;4.43;2.30;;;15.70;99.90;;;;;;5055606;28;19924;-58
2023/07/01 07:09:24;;;;;;;;;;;15.70;99.90;;;;;;5054211;28;20497;-55
2023/07/01 07:11:54;;;;;;;6.75;2.00;;;15.70;99.90;;;;;;5058430;28;19977;-58
2023/07/01 07:14:21;;;;;;;6.13;2.40;;;15.70;99.90;;;;;;5053624;28;20060;-59
2023/07/01 07:16:47;;;;;;;7.03;2.53;;;15.80;99.90;;;;;;5057435;28;20039;-59
2023/07/01 07:19:13;;;;;;;;;;;15.80;99.90;;;;;;5065460;28;20533;-63
2023/07/01 07:21:38;;;;;;;17.60;2.60;;;15.80;99.90;;;;;;5053807;28;19920;-57
2023/07/01 07:24:04;;;;;;;;;;;15.80;99.90;;;;;;5053411;28;20036;-58
2023/07/01 07:26:29;;;;;;;4.40;2.10;;;15.90;99.90;;;;;;5052240;28;20881;-59
2023/07/01 07:28:55;;;;;;;;;;;15.90;99.90;;;;;;5051794;28;20044;-58
2023/07/01 07:31:21;;;;;;;6.68;2.72;;;15.90;99.90;;;;;;5060705;28;19920;-60
2023/07/01 07:33:47;;;;;;;7.40;2.20;;;15.90;99.90;;;;;;5060755;28;20051;-51
2023/07/01 07:36:12;;;;;;;;;;;15.90;99.90;;;;;;5053948;28;20135;-55
2023/07/01 07:38:38;;;;;;;7.78;2.17;;;16.00;99.90;;;;;;5062697;28;20491;-60
2023/07/01 07:41:03;;;;;;;;;;;16.00;99.90;;;;;;5055883;28;20551;-58
2023/07/01 07:43:29;;;;;;;5.05;2.05;;;16.00;99.90;;;;;;5061924;28;19920;-56
2023/07/01 07:45:54;;;;;;;5.55;2.20;;;16.10;99.90;;;;;;5052915;28;20048;-62
2023/07/01 07:48:20;;;;;;;;;;;16.00;99.90;;;;;;5054663;28;20086;-56
2023/07/01 07:50:46;;;;;;;5.07;2.45;;;16.10;99.90;;;;;;5053661;28;19925;-54
2023/07/01 07:53:13;;;;;;;5.97;3.15;;;16.10;99.90;;;;;;5054621;28;20029;-55
2023/07/01 07:55:40;;;;;;;5.93;3.50;;;16.10;99.90;;;;;;5057498;28;20047;-54
2023/07/01 07:58:05;;;;;;;5.65;2.50;;;16.20;99.90;;;;;;5061687;28;20428;-64
2023/07/01 08:00:31;;;;;;;;;;;16.20;99.90;;;;;;5057727;28;20044;-53
2023/07/01 08:02:57;;;;;;;5.47;2.55;;;16.20;99.90;;;;;;5056629;28;19924;-59
2023/07/01 08:05:24;;;;;;;;;;;16.30;99.90;;;;;;5056039;28;20333;-58
2023/07/01 08:07:50;;;;;;;9.23;2.42;;;16.30;99.90;;;;;;5062474;28;20996;-55
2023/07/01 08:10:16;;;;;;;;;;;16.30;99.90;;;;;;5049385;28;20028;-57
2023/07/01 08:12:41;;;;;;;5.57;2.58;;;16.30;99.90;;;;;;5062859;28;19923;-59
2023/07/01 08:15:08;;;;;;;;;;;16.30;99.90;;;;;;5055015;28;20170;-59
2023/07/01 08:17:34;;;;;;;4.22;2.60;;;16.30;99.90;;;;;;5062643;28;20484;-60
2023/07/01 08:19:59;;;;;;;;;;;16.20;99.90;;;;;;5052171;28;20036;-58
2023/07/01 08:22:25;;;;;;;8.25;2.40;;;16.20;99.90;;;;;;5062227;28;20050;-62
2023/07/01 08:24:50;;;;;;;;;;;16.30;99.90;;;;;;5068362;28;20104;-56
2023/07/01 08:27:16;;;;;;;5.90;2.78;;;16.40;99.90;;;;;;5065987;28;19974;-61
2023/07/01 08:29:42;;;;;;;;;;;16.40;99.90;;;;;;5054999;28;20110;-58
2023/07/01 08:32:09;;;;;;;7.00;2.65;;;16.40;99.90;;;;;;5053755;28;20627;-58
2023/07/01 08:34:36;;;;;;;9.40;2.17;;;16.40;99.90;;;;;;5056295;28;20044;-56
2023/07/01 08:37:02;;;;;;;6.07;2.20;;;16.40;99.90;;;;;;5068642;28;22138;-60
2023/07/01 08:39:28;;;;;;;6.90;2.47;;;16.50;99.90;;;;;;5053539;28;20041;-54
2023/07/01 08:41:57;;;;;;;;;;;16.60;99.90;;;;;;5059711;28;20035;-58
2023/07/01 08:44:25;;;;;;;7.18;1.98;;;16.60;99.90;;;;;;5051060;28;19967;-55
2023/07/01 08:46:53;;;;;;;5.07;2.28;;;16.60;99.90;;;;;;5062211;28;20581;-59
2023/07/01 08:49:22;;;;;;;5.18;1.95;;;16.50;99.90;;;;;;5055561;28;20045;-61
2023/07/01 08:51:51;;;;;;;6.45;2.47;;;16.60;99.90;;;;;;5057343;28;20051;-58
2023/07/01 08:54:17;;;;;;;5.90;2.60;;;16.60;99.90;;;;;;5056439;28;20409;-61
2023/07/01 08:56:46;;;;;;;;;;;16.60;99.90;;;;;;5060546;28;20876;-61
2023/07/01 08:59:14;;;;;;;2.63;1.60;;;16.70;99.90;;;;;;5056859;28;19924;-60
2023/07/01 09:01:44;;;;;;;4.10;1.95;;;16.90;99.90;;;;;;5058298;28;20089;-59
2023/07/01 09:04:10;;;;;;;4.43;2.35;;;17.10;99.90;;;;;;5057770;28;20120;-59
2023/07/01 09:06:36;;;;;;;;;;;17.10;99.90;;;;;;5055971;28;20064;-57
2023/07/01 09:09:02;;;;;;;4.00;1.98;;;17.20;99.90;;;;;;5054022;28;19920;-60
2023/07/01 09:11:28;;;;;;;4.10;2.05;;;17.40;99.90;;;;;;5060883;28;20043;-60
2023/07/01 09:13:55;;;;;;;;;;;17.50;99.90;;;;;;5060725;28;20033;-60
2023/07/01 09:16:33;;;;;;;3.75;1.75;;;17.50;99.90;;;;;;5057845;28;19916;-52
2023/07/01 09:19:16;;;;;;;2.38;1.58;;;17.50;99.90;;;;;;5044630;28;20147;-55
2023/07/01 09:21:43;;;;;;;4.78;2.13;;;17.50;99.90;;;;;;5059562;28;20076;-54
2023/07/01 09:24:12;;;;;;;6.32;2.20;;;17.40;99.90;;;;;;5053244;28;20041;-58
2023/07/01 09:26:39;;;;;;;3.15;1.95;;;17.40;99.90;;;;;;5061824;28;20044;-59
2023/07/01 09:29:15;;;;;;;2.92;1.60;;;17.30;99.90;;;;;;5055704;28;20037;-61
2023/07/01 09:31:48;;;;;;;6.30;2.60;;;17.20;99.90;;;;;;5049648;28;20474;-56
2023/07/01 09:34:15;;;;;;;2.28;1.42;;;17.20;99.90;;;;;;5055815;28;20029;-59
2023/07/01 09:36:40;;;;;;;6.07;1.92;;;17.10;99.90;;;;;;5078883;28;20044;-60
2023/07/01 09:39:06;;;;;;;;;;;17.00;99.90;;;;;;5049088;28;20040;-58
2023/07/01 09:41:32;;;;;;;6.55;2.03;;;17.00;99.90;;;;;;5056839;28;20303;-52
2023/07/01 09:43:58;;;;;;;3.33;1.40;;;16.90;99.90;;;;;;5056837;28;20064;-58
2023/07/01 09:46:40;;;;;;;6.80;1.77;;;16.90;99.90;;;;;;5055074;28;20090;-56
2023/07/01 09:49:07;;;;;;;3.15;1.85;;;16.80;99.90;;;;;;5052812;28;20040;-56
2023/07/01 09:51:33;;;;;;;6.00;1.65;;;16.80;99.90;;;;;;5058983;28;20072;-56
2023/07/01 09:53:58;;;;;;;;;;;16.90;99.90;;;;;;5047063;28;20730;-56
2023/07/01 09:56:24;;;;;;;4.70;1.85;;;16.90;99.90;;;;;;5054034;28;19920;-59
2023/07/01 09:58:50;;;;;;;3.17;1.40;;;17.00;99.90;;;;;;5055948;28;20399;-59
2023/07/01 10:01:16;;;;;;;;;;;17.00;99.90;;;;;;5057530;28;20125;-56
2023/07/01 10:03:42;;;;;;;4.57;2.20;;;16.90;99.90;;;;;;5056180;28;19927;-58
2023/07/01 10:06:08;;;;;;;;;;;16.90;99.90;;;;;;5056183;28;20307;-56
2023/07/01 10:08:34;;;;;;;3.20;1.53;;;17.00;99.90;;;;;;5055910;28;19924;-56
2023/07/01 10:11:05;;;;;;;;;;;17.00;99.90;;;;;;5054421;28;20287;-55
2023/07/01 10:13:34;;;;;;;4.93;1.67;;;17.00;99.90;;;;;;5058827;28;20388;-57
2023/07/01 10:16:02;;;;;;;7.78;2.60;;;16.90;99.90;;;;;;5055146;28;20032;-59
2023/07/01 10:18:30;;;;;;;2.60;1.70;;;16.80;99.90;;;;;;5059414;28;20048;-56
2023/07/01 10:21:25;;;;;;;3.00;1.50;;;16.80;99.90;;;;;;5048787;28;20083;-56
2023/07/01 10:23:52;;;;;;;2.63;1.58;;;16.70;99.90;;;;;;5047563;28;20139;-59
2023/07/01 10:26:47;;;;;;;21.00;2.35;;;16.60;99.90;;;;;;5057920;28;20041;-57
2023/07/01 10:29:31;;;;;;;4.70;1.90;;;16.60;99.90;;;;;;5052670;28;20041;-54
2023/07/01 10:32:09;;;;;;;7.82;1.38;;;16.60;99.90;;;;;;5053011;28;21063;-58
2023/07/01 10:34:53;;;;;;;4.53;1.40;;;16.70;99.90;;;;;;5049120;28;20110;-58
2023/07/01 10:37:19;;;;;;;2.97;1.33;;;16.70;99.90;;;;;;5064624;28;20086;-58
2023/07/01 10:39:44;;;;;;;2.78;1.17;;;16.60;99.90;;;;;;5051139;28;20051;-57
2023/07/01 10:42:34;;;;;;;;;;;16.70;99.90;;;;;;5058048;28;20041;-58
2023/07/01 10:45:11;;;;;;;15.23;1.42;;;16.80;99.90;;;;;;5048743;28;20299;-56
2023/07/01 10:47:44;;;;;;;3.08;1.10;;;16.80;99.90;;;;;;5054274;28;20064;-61
2023/07/01 10:50:19;;;;;;;4.75;1.30;;;16.90;99.90;;;;;;5049027;28;20036;-58
2023/07/01 10:52:57;;;;;;;3.27;1.00;;;16.80;99.90;;;;;;5059445;28;20093;-59
2023/07/01 10:55:44;;;;;;;2.47;1.10;;;16.70;99.90;;;;;;5048976;28;20363;-57
2023/07/01 10:58:13;;;;;;;;;;;16.70;99.90;;;;;;5056953;28;20059;-60
2023/07/01 11:00:39;;;;;;;2.20;1.02;;;16.70;99.90;;;;;;5048767;28;19982;-60
2023/07/01 11:03:28;;;;;;;4.82;1.02;;;16.70;99.90;;;;;;5054732;28;20044;-57
2023/07/01 11:05:59;;;;;;;1.95;1.20;;;16.60;99.90;;;;;;5056048;28;20052;-59
2023/07/01 11:08:29;;;;;;;3.30;1.35;;;16.60;99.90;;;;;;5063263;28;20116;-58
2023/07/01 11:10:54;;;;;;;2.80;1.10;;;16.60;99.90;;;;;;5055489;28;20033;-51
2023/07/01 11:13:20;;;;;;;;;;;16.70;99.90;;;;;;5058951;28;20063;-55
2023/07/01 11:16:07;;;;;;;1.15;0.80;;;16.70;99.90;;;;;;5050226;28;19919;-60
2023/07/01 11:18:47;;;;;;;2.50;0.88;;;16.80;99.90;;;;;;5054970;28;20060;-58
2023/07/01 11:21:21;;;;;;;1.95;0.90;;;17.00;99.90;;;;;;5055818;28;20033;-60
2023/07/01 11:24:07;;;;;;;1.83;0.95;;;17.10;99.90;;;;;;5048648;28;20045;-60
2023/07/01 11:26:38;;;;;;;3.22;1.08;;;17.20;99.90;;;;;;5058626;28;20571;-57
2023/07/01 11:29:15;;;;;;;4.38;1.23;;;17.10;99.90;;;;;;5052247;28;20040;-60
2023/07/01 11:31:41;;;;;;;1.50;0.98;;;17.00;99.90;;;;;;5051301;28;20060;-58
2023/07/01 11:34:06;;;;;;;;;;;17.10;99.90;;;;;;5058692;28;20075;-59
2023/07/01 11:36:35;;;;;;;;;;;17.00;99.90;;;;;;5061283;28;19916;-58
2023/07/01 11:39:07;;;;;;;;;;;17.00;99.90;;;;;;5059343;28;19956;-59
2023/07/01 11:41:33;;;;;;;;;;;16.80;99.90;;;;;;5059602;28;19924;-59
2023/07/01 11:43:59;;;;;;;;;;;16.80;99.90;;;;;;5050176;28;19920;-58
2023/07/01 11:46:34;;;;;;;;;;;16.70;99.90;;;;;;5051665;28;19932;-58
2023/07/01 11:49:13;;;;;;;;;;;16.80;99.90;;;;;;5054248;28;20443;-54
2023/07/01 11:51:39;;;;;;;;;;;16.90;99.90;;;;;;5065978;28;19979;-63
2023/07/01 11:54:04;;;;;;;;;;;16.90;99.90;;;;;;5058506;28;19993;-59
2023/07/01 11:56:30;;;;;;;;;;;17.00;99.90;;;;;;5068324;28;20030;-56
2023/07/01 11:58:55;;;;;;;;;;;17.10;99.90;;;;;;5052590;28;20422;-58
2023/07/01 12:01:30;;;;;;;;;;;17.00;99.90;;;;;;5054937;28;20420;-57
2023/07/01 12:03:56;;;;;;;;;;;17.10;99.90;;;;;;5058957;28;19924;-55
2023/07/01 12:06:22;;;;;;;;;;;17.10;99.90;;;;;;5051693;28;19925;-58
2023/07/01 12:08:50;;;;;;;;;;;17.10;99.90;;;;;;5060475;28;19927;-56
2023/07/01 12:11:16;;;;;;;;;;;17.10;99.90;;;;;;5054545;28;19969;-58
2023/07/01 12:13:42;;;;;;;;;;;17.10;99.90;;;;;;5048909;28;20001;-56
2023/07/01 12:16:07;;;;;;;;;;;17.10;99.90;;;;;;5053206;28;19927;-59
2023/07/01 12:18:33;;;;;;;;;;;17.10;99.90;;;;;;5060811;28;20391;-58
2023/07/01 12:20:58;;;;;;;;;;;17.00;99.90;;;;;;5057077;28;20014;-59
2023/07/01 12:23:24;;;;;;;;;;;16.80;99.90;;;;;;5064018;28;19923;-56
2023/07/01 12:25:49;;;;;;;;;;;16.80;99.90;;;;;;5054163;28;20117;-60
2023/07/01 12:28:15;;;;;;;;;;;16.80;99.90;;;;;;5057094;28;19925;-59
2023/07/01 12:30:41;;;;;;;;;;;16.80;99.90;;;;;;5053011;28;19955;-56
2023/07/01 12:33:07;;;;;;;;;;;16.70;99.90;;;;;;5059503;28;19916;-59
2023/07/01 12:35:32;;;;;;;;;;;16.70;99.90;;;;;;5059352;28;19923;-60
2023/07/01 12:37:58;;;;;;;;;;;16.60;99.90;;;;;;5068846;28;19978;-55
2023/07/01 12:40:27;;;;;;;;;;;16.70;99.90;;;;;;5054673;28;20443;-58
2023/07/01 12:42:53;;;;;;;;;;;16.80;99.90;;;;;;5059929;28;20280;-57
2023/07/01 12:45:19;;;;;;;;;;;16.80;99.90;;;;;;5046831;28;20442;-58
2023/07/01 12:47:45;;;;;;;;;;;16.80;99.90;;;;;;5062027;28;20018;-60
2023/07/01 12:50:10;;;;;;;;;;;16.90;99.90;;;;;;5053327;28;19951;-55
2023/07/01 12:52:36;;;;;;;;;;;16.90;99.90;;;;;;5063291;28;19956;-61
2023/07/01 12:55:01;;;;;;;;;;;17.00;99.90;;;;;;5048272;28;20018;-59
2023/07/01 12:57:27;;;;;;;;;;;16.90;99.90;;;;;;5061300;28;19943;-52
2023/07/01 12:59:54;;;;;;;;;;;16.80;99.90;;;;;;5049432;28;20015;-61
2023/07/01 13:02:22;;;;;;;;;;;16.70;99.90;;;;;;5057964;28;19967;-51
2023/07/01 13:05:08;;;;;;;;;;;16.70;99.90;;;;;;5057424;28;19957;-57
2023/07/01 13:07:34;;;;;;;;;;;16.60;99.90;;;;;;5068030;28;19974;-60
2023/07/01 13:10:00;;;;;;;;;;;16.60;99.90;;;;;;5068747;28;19978;-58
2023/07/01 13:12:27;;;;;;;;;;;16.60;99.90;;;;;;5061275;28;19924;-58
2023/07/01 13:14:53;;;;;;;;;;;16.60;99.90;;;;;;5051366;28;19920;-58
2023/07/01 13:17:27;;;;;;;;;;;16.60;99.90;;;;;;5061322;28;19952;-57
2023/07/01 13:19:53;;;;;;;;;;;16.50;99.90;;;;;;5054224;28;19966;-60
2023/07/01 13:22:18;;;;;;;;;;;16.40;99.90;;;;;;5064065;28;19967;-54